Middleton, WI

5:55 AM CST on February 13, 2016 (GMT -0600)
Middleton

Weather History for KC29 - May, 2013

Change the Weather History Date:

Thursday, May 23, 2013

  Actual Average (KMSN) Record (KMSN)
Temperature  
Mean Temperature 53 °F 59 °F  
Max Temperature 63 °F 71 °F 91 °F (1975)
Min Temperature 42 °F 48 °F 28 °F (1958)
Degree Days  
Heating Degree Days 12 7  
Month to date heating degree days 221  
Since 1 July heating degree days 7228  
Cooling Degree Days 0 1  
Month to date cooling degree days 13  
Year to date cooling degree days 17  
Growing Degree Days 3 (Base 50)    
Moisture  
Dew Point 45 °F    
Average Humidity 73    
Maximum Humidity 96    
Minimum Humidity 31    
Precipitation  
Precipitation 0.05 in 0.12 in 3.64 in (1966)
Month to date precipitation 2.55  
Year to date precipitation 10.83  
Snow  
Snow 0.00 in 0.00 in 0.00 in ()
Month to date snowfall 0.2  
Since 1 July snowfall 50.9  
Snow Depth -    
Sea Level Pressure  
Sea Level Pressure 30.08 in    
Wind  
Wind Speed 13 mph (NNE)    
Max Wind Speed 18 mph    
Max Gust Speed 26 mph    
Visibility 9 miles    
Events      
T = Trace of Precipitation, MM = Missing Value Source: NWS Daily Summary

Daily Weather History Graph

Daily Weather History Graph

Search for Another Location

Airport or City:

Trip Planner

Search our weather history database for the weather conditions in past years. The results will help you decide how hot, cold, wet, or windy it might be!

Date:

Astronomy

May. 23, 2013 Rise Set
Actual Time 5:27 AM CDT 8:23 PM CDT
Civil Twilight 4:53 AM CDT 8:57 PM CDT
Nautical Twilight 4:10 AM CDT 9:40 PM CDT
Astronomical Twilight 3:20 AM CDT 10:30 PM CDT
Moon 6:54 PM CDT (5/23) 4:14 AM CDT (5/23)
Length of Visible Light 16h 03m
Length of Day
14h 56m
Waxing Gibbous, 97% of the Moon is Illuminated
May 23
Waxing Gibbous
May 24
Full
May 31
Last Quarter
Jun 8
New
Jun 16
First Quarter

Hourly Weather History & Observations

Time (CDT) Temp. Windchill Dew Point Humidity Pressure Visibility Wind Dir Wind Speed Gust Speed Precip Events Conditions
12:15 AM 55.8 °F - 54.5 °F 96% 29.80 in 5.0 mi NNE 12.7 mph 17.3 mph N/A   Overcast
12:35 AM 55.0 °F - 53.6 °F 95% 29.81 in 7.0 mi NNE 17.3 mph 23.0 mph N/A   Overcast
12:55 AM 53.8 °F - 52.2 °F 94% 29.81 in 5.0 mi NNE 17.3 mph 23.0 mph 0.01 in   Overcast
1:15 AM 54.0 °F - 52.7 °F 95% 29.82 in 7.0 mi NNE 11.5 mph - N/A   Overcast
1:35 AM 53.8 °F - 52.3 °F 95% 29.82 in 5.0 mi NNE 16.1 mph 19.6 mph N/A   Overcast
1:55 AM 53.6 °F - 52.0 °F 94% 29.83 in 7.0 mi NNE 15.0 mph 19.6 mph N/A   Overcast
2:15 AM 53.6 °F - 52.0 °F 94% 29.83 in 5.0 mi NNE 13.8 mph 20.7 mph 0.01 in   Overcast
2:35 AM 53.6 °F - 52.0 °F 94% 29.84 in 5.0 mi North 13.8 mph 17.3 mph 0.01 in   Overcast
2:55 AM 53.2 °F - 52.0 °F 95% 29.84 in 7.0 mi NNE 12.7 mph - 0.02 in   Overcast
3:15 AM 53.1 °F - 52.0 °F 96% 29.85 in 5.0 mi NNE 12.7 mph 18.4 mph 0.01 in   Overcast
3:35 AM 53.2 °F - 52.2 °F 96% 29.85 in 10.0 mi NNE 12.7 mph - 0.01 in   Overcast
3:55 AM 53.2 °F - 52.2 °F 96% 29.86 in 10.0 mi NNE 11.5 mph - 0.01 in   Overcast
4:15 AM 53.2 °F - 52.2 °F 96% 29.87 in 10.0 mi NNE 13.8 mph 19.6 mph N/A   Overcast
4:35 AM 52.3 °F - 51.1 °F 95% 29.88 in 10.0 mi NNE 16.1 mph 19.6 mph N/A   Overcast
4:55 AM 52.0 °F - 50.9 °F 96% 29.89 in 10.0 mi NNE 17.3 mph 23.0 mph N/A   Overcast
5:15 AM 52.0 °F - 50.9 °F 96% 29.91 in 10.0 mi NNE 13.8 mph 21.9 mph N/A   Overcast
5:35 AM 52.0 °F - 50.4 °F 94% 29.92 in 10.0 mi NNE 13.8 mph 23.0 mph N/A   Overcast
5:55 AM 51.8 °F - 49.8 °F 93% 29.93 in 10.0 mi NNE 18.4 mph 26.5 mph N/A   Overcast
6:15 AM 51.8 °F - 49.1 °F 90% 29.95 in 7.0 mi NNE 15.0 mph 25.3 mph 0.01 in   Overcast
6:35 AM 50.9 °F - 49.1 °F 94% 29.97 in 5.0 mi NNE 17.3 mph 24.2 mph 0.01 in   Overcast
6:55 AM 50.9 °F - 48.0 °F 90% 29.98 in 10.0 mi NNE 17.3 mph 21.9 mph 0.01 in   Overcast
7:15 AM 50.9 °F - 48.2 °F 90% 29.99 in 7.0 mi NNE 13.8 mph - N/A   Overcast
7:35 AM 50.5 °F - 48.4 °F 92% 30.00 in 10.0 mi NNE 15.0 mph 26.5 mph N/A   Overcast
7:55 AM 50.5 °F - 47.7 °F 90% 30.01 in 10.0 mi NNE 13.8 mph 23.0 mph N/A   Overcast
8:15 AM 51.3 °F - 48.4 °F 90% 30.02 in 10.0 mi North 13.8 mph - N/A   Overcast
8:35 AM 50.9 °F - 48.4 °F 91% 30.04 in 10.0 mi North 13.8 mph 18.4 mph N/A   Overcast
8:55 AM 50.9 °F - 47.5 °F 88% 30.05 in 10.0 mi North 12.7 mph 19.6 mph N/A   Overcast
9:15 AM 51.3 °F - 47.5 °F 87% 30.06 in 10.0 mi North 13.8 mph 19.6 mph N/A   Overcast
9:35 AM 52.2 °F - 46.6 °F 81% 30.06 in 10.0 mi NNE 15.0 mph 19.6 mph N/A   Overcast
9:55 AM 50.9 °F - 46.6 °F 85% 30.08 in 10.0 mi North 13.8 mph 20.7 mph N/A   Overcast
10:15 AM 50.9 °F - 45.9 °F 83% 30.09 in 10.0 mi North 11.5 mph 16.1 mph N/A   Overcast
10:35 AM 50.9 °F - 44.6 °F 79% 30.10 in 10.0 mi North 11.5 mph - N/A   Overcast
10:55 AM 52.7 °F - 44.8 °F 74% 30.10 in 10.0 mi North 10.4 mph 18.4 mph N/A   Overcast
11:15 AM 52.7 °F - 43.7 °F 71% 30.10 in 10.0 mi NNE 16.1 mph 19.6 mph N/A   Mostly Cloudy
11:35 AM 54.5 °F - 45.5 °F 72% 30.11 in 10.0 mi North 11.5 mph 16.1 mph N/A   Mostly Cloudy
11:55 AM 56.7 °F - 46.2 °F 68% 30.11 in 10.0 mi NNE 12.7 mph 17.3 mph N/A   Mostly Cloudy
12:15 PM 56.8 °F - 45.7 °F 66% 30.12 in 10.0 mi North 15.0 mph 19.6 mph N/A   Mostly Cloudy
12:35 PM 56.7 °F - 44.2 °F 63% 30.12 in 10.0 mi North 11.5 mph 19.6 mph N/A   Mostly Cloudy
12:55 PM 58.5 °F - 44.6 °F 60% 30.13 in 10.0 mi NNE 18.4 mph - N/A   Scattered Clouds
1:15 PM 59.0 °F - 46.4 °F 63% 30.13 in 10.0 mi NNE 12.7 mph 18.4 mph N/A   Scattered Clouds
1:35 PM 58.8 °F - 44.6 °F 59% 30.13 in 10.0 mi North 13.8 mph 17.3 mph N/A   Mostly Cloudy
1:55 PM 60.8 °F - 45.3 °F 57% 30.14 in 10.0 mi NNE 11.5 mph 19.6 mph N/A   Mostly Cloudy
2:15 PM 61.2 °F - 44.4 °F 54% 30.14 in 10.0 mi NNE 13.8 mph 18.4 mph N/A   Mostly Cloudy
2:35 PM 61.2 °F - 45.3 °F 56% 30.14 in 10.0 mi North 13.8 mph - N/A   Mostly Cloudy
2:55 PM 60.8 °F - 43.3 °F 53% 30.15 in 10.0 mi North 13.8 mph 18.4 mph N/A   Overcast
3:15 PM 63.1 °F - 45.1 °F 52% 30.15 in 10.0 mi North 12.7 mph 19.6 mph N/A   Mostly Cloudy
3:35 PM 62.4 °F - 44.8 °F 52% 30.15 in 10.0 mi North 12.7 mph 17.3 mph N/A   Scattered Clouds
3:55 PM 62.2 °F - 42.1 °F 48% 30.16 in 10.0 mi North 10.4 mph 19.6 mph N/A   Mostly Cloudy
4:15 PM 63.3 °F - 40.6 °F 43% 30.16 in 10.0 mi NNE 10.4 mph 17.3 mph N/A   Mostly Cloudy
4:35 PM 63.7 °F - 40.3 °F 42% 30.17 in 10.0 mi NNE 11.5 mph 18.4 mph N/A   Mostly Cloudy
4:55 PM 61.9 °F - 40.3 °F 45% 30.18 in 10.0 mi NNE 9.2 mph - N/A   Scattered Clouds
5:15 PM 62.6 °F - 38.3 °F 41% 30.18 in 10.0 mi NNE 11.5 mph - N/A   Scattered Clouds
5:35 PM 63.3 °F - 35.8 °F 36% 30.19 in 10.0 mi NNE 8.1 mph 17.3 mph N/A   Scattered Clouds
5:55 PM 62.8 °F - 31.6 °F 31% 30.20 in 10.0 mi NNE 12.7 mph - N/A   Clear
6:15 PM 61.7 °F - 36.1 °F 39% 30.20 in 10.0 mi NE 6.9 mph - N/A   Clear
6:35 PM 61.7 °F - 38.3 °F 42% 30.21 in 10.0 mi NE 6.9 mph - N/A   Clear
6:55 PM 60.8 °F - 37.0 °F 41% 30.22 in 10.0 mi ENE 6.9 mph - N/A   Clear
7:15 PM 59.7 °F - 34.3 °F 39% 30.22 in 10.0 mi ENE 6.9 mph - N/A   Clear
7:35 PM 58.3 °F - 36.3 °F 44% 30.22 in 10.0 mi ENE 6.9 mph - N/A   Clear
7:55 PM 56.1 °F - 37.2 °F 49% 30.23 in 10.0 mi ENE 5.8 mph - N/A   Clear
8:15 PM 54.9 °F - 36.5 °F 50% 30.23 in 10.0 mi East 4.6 mph - N/A   Clear
8:35 PM 53.4 °F - 38.1 °F 56% 30.24 in 10.0 mi Calm Calm - N/A   Clear
8:55 PM 52.9 °F - 38.8 °F 59% 30.25 in 10.0 mi Calm Calm - N/A   Clear
9:15 PM 51.3 °F - 37.8 °F 60% 30.25 in 10.0 mi East 3.5 mph - N/A   Clear
9:35 PM 51.8 °F - 37.4 °F 58% 30.26 in 10.0 mi East 3.5 mph - N/A   Clear
9:55 PM 50.0 °F - 37.2 °F 62% 30.27 in 10.0 mi ENE 3.5 mph - N/A   Clear
10:15 PM 46.8 °F - 39.0 °F 74% 30.28 in 10.0 mi Calm Calm - N/A   Clear
10:35 PM 44.1 °F - 38.7 °F 81% 30.28 in 10.0 mi Calm Calm - N/A   Clear
10:55 PM 45.3 °F - 41.5 °F 87% 30.28 in 10.0 mi Calm Calm - N/A   Clear
11:15 PM 45.1 °F - 42.8 °F 91% 30.28 in 10.0 mi Calm Calm - N/A   Clear
11:35 PM 43.3 °F 40.7 °F 40.8 °F 91% 30.29 in 10.0 mi West 4.6 mph - N/A   Clear
11:55 PM 42.4 °F - 40.8 °F 94% 30.31 in 10.0 mi Calm Calm - N/A   Clear